createdAt,value
2022-07-28T00:00:09.031Z,97263.97
2022-07-28T00:02:38.851Z,97259.23
2022-07-28T00:05:07.682Z,97253.52
2022-07-28T00:07:35.188Z,97259.23
2022-07-28T00:10:04.341Z,97249.37
2022-07-28T00:12:32.106Z,97251.92
2022-07-28T00:14:59.903Z,97259.60
2022-07-28T00:17:27.700Z,97267.88
2022-07-28T00:19:55.707Z,97254.09
2022-07-28T00:22:23.296Z,97258.04
2022-07-28T00:24:51.091Z,97255.47
2022-07-28T00:27:19.555Z,97265.71
2022-07-28T00:29:50.218Z,97273.80
2022-07-28T00:32:17.531Z,97274.19
2022-07-28T00:34:46.506Z,97273.62
2022-07-28T00:37:14.806Z,97267.30
2022-07-28T00:39:43.812Z,97272.63
2022-07-28T00:42:11.967Z,97261.59
2022-07-28T00:44:41.355Z,97257.08
2022-07-28T00:47:09.111Z,97252.13
2022-07-28T00:49:37.212Z,97250.19
2022-07-28T00:52:07.770Z,97253.72
2022-07-28T00:54:36.934Z,97249.77
2022-07-28T00:57:04.828Z,97254.87
2022-07-28T00:59:33.817Z,97257.03
2022-07-28T01:02:03.057Z,97264.36
2022-07-28T01:04:30.958Z,97258.27
2022-07-28T01:07:25.328Z,97263.84
2022-07-28T01:10:09.976Z,97261.49
2022-07-28T01:13:04.392Z,97279.22
2022-07-28T01:15:40.477Z,97267.07
2022-07-28T01:18:25.074Z,97270.45
2022-07-28T01:21:02.531Z,97265.92
2022-07-28T01:23:47.724Z,97269.67
2022-07-28T01:26:53.931Z,97269.08
2022-07-28T01:30:06.243Z,97263.55
2022-07-28T01:32:44.262Z,97265.89
2022-07-28T01:35:20.202Z,97265.69
2022-07-28T01:37:52.130Z,97267.25
2022-07-28T01:40:24.162Z,97267.25
2022-07-28T01:42:59.186Z,97273.55
2022-07-28T01:45:28.377Z,97266.84
2022-07-28T01:47:59.778Z,97270.38
2022-07-28T01:50:29.950Z,97271.56
2022-07-28T01:52:58.875Z,97264.86
2022-07-28T01:55:28.569Z,97266.82
2022-07-28T01:57:57.432Z,97261.31
2022-07-28T02:00:29.187Z,97265.63
2022-07-28T02:02:58.147Z,97263.86
2022-07-28T02:05:28.344Z,97267.40
2022-07-28T02:07:58.799Z,97273.28
2022-07-28T02:10:29.139Z,97277.23
2022-07-28T02:12:59.078Z,97274.11
2022-07-28T02:15:29.408Z,97276.28
2022-07-28T02:17:59.032Z,97278.64
2022-07-28T02:20:27.991Z,97277.33
2022-07-28T02:22:58.235Z,97274.77
2022-07-28T02:25:30.248Z,97276.75
2022-07-28T02:28:02.148Z,97276.75
2022-07-28T02:30:38.008Z,97279.50
2022-07-28T02:33:16.195Z,97277.94
2022-07-28T02:36:00.353Z,97279.50
2022-07-28T02:38:35.406Z,97281.06
2022-07-28T02:41:08.334Z,97279.87
2022-07-28T02:43:50.138Z,97282.63
2022-07-28T02:46:13.690Z,97282.63
2022-07-28T02:48:44.148Z,97295.02
2022-07-28T02:51:13.726Z,97296.22
2022-07-28T02:53:42.694Z,97300.35
2022-07-28T02:56:12.289Z,97304.48
2022-07-28T02:58:40.941Z,97308.25
2022-07-28T03:01:09.266Z,97307.25
2022-07-28T03:03:41.288Z,97305.28
2022-07-28T03:06:07.015Z,97304.30
2022-07-28T03:08:34.645Z,97309.02
2022-07-28T03:11:11.658Z,97310.95
2022-07-28T03:13:39.782Z,97310.16
2022-07-28T03:16:08.110Z,97313.30
2022-07-28T03:18:35.703Z,97313.08
2022-07-28T03:21:03.841Z,97318.39
2022-07-28T03:23:39.711Z,97319.17
2022-07-28T03:26:27.668Z,97317.98
2022-07-28T03:28:57.999Z,97322.71
2022-07-28T03:31:29.006Z,97321.13
2022-07-28T03:33:56.900Z,97326.05
2022-07-28T03:36:33.243Z,97323.89
2022-07-28T03:39:04.351Z,97330.96
2022-07-28T03:41:34.364Z,97327.03
2022-07-28T03:44:02.865Z,97333.73
2022-07-28T03:46:31.309Z,97327.26
2022-07-28T03:48:59.496Z,97334.16
2022-07-28T03:51:29.100Z,97332.38
2022-07-28T03:53:56.899Z,97341.66
2022-07-28T03:56:24.502Z,97339.88
2022-07-28T03:58:52.324Z,97338.56
2022-07-28T04:01:20.548Z,97345.45
2022-07-28T04:03:48.230Z,97343.69
2022-07-28T04:06:16.021Z,97347.03
2022-07-28T04:08:44.533Z,97346.06
2022-07-28T04:11:12.388Z,97354.92
2022-07-28T04:13:40.047Z,97349.42
2022-07-28T04:16:07.807Z,97350.80
2022-07-28T04:18:35.886Z,97349.42
2022-07-28T04:21:04.237Z,97358.65
2022-07-28T04:23:32.777Z,97347.22
2022-07-28T04:26:00.432Z,97347.98
2022-07-28T04:28:27.913Z,97353.48
2022-07-28T04:30:55.488Z,97353.28
2022-07-28T04:33:24.281Z,97355.24
2022-07-28T04:35:53.098Z,97349.91
2022-07-28T04:38:21.069Z,97345.16
2022-07-28T04:40:49.418Z,97350.42
2022-07-28T04:43:17.534Z,97353.75
2022-07-28T04:45:54.069Z,97347.99
2022-07-28T04:48:16.016Z,97354.06
2022-07-28T04:50:45.326Z,97355.23
2022-07-28T04:53:13.124Z,97365.44
2022-07-28T04:55:40.918Z,97368.55
2022-07-28T04:58:08.723Z,97374.44
2022-07-28T05:00:37.779Z,97373.59
2022-07-28T05:03:05.326Z,97374.92
2022-07-28T05:05:33.065Z,97374.30
2022-07-28T05:08:00.737Z,97375.06
2022-07-28T05:10:28.514Z,97379.78
2022-07-28T05:12:57.154Z,97384.50
2022-07-28T05:15:25.070Z,97386.81
2022-07-28T05:17:52.686Z,97386.55
2022-07-28T05:20:20.414Z,97379.24
2022-07-28T05:22:53.208Z,97380.95
2022-07-28T05:25:23.354Z,97381.53
2022-07-28T05:27:52.685Z,97382.20
2022-07-28T05:30:21.492Z,97378.75
2022-07-28T05:32:50.340Z,97373.91
2022-07-28T05:35:18.059Z,97371.44
2022-07-28T05:37:45.789Z,97371.37
2022-07-28T05:40:15.345Z,97367.37
2022-07-28T05:42:44.359Z,97378.95
2022-07-28T05:45:17.097Z,97378.49
2022-07-28T05:47:46.127Z,97378.20
2022-07-28T05:50:18.954Z,97378.42
2022-07-28T05:52:48.638Z,97378.77
2022-07-28T05:55:17.083Z,97377.91
2022-07-28T05:57:45.837Z,97387.12
2022-07-28T06:00:20.366Z,97387.22
2022-07-28T06:02:49.977Z,97383.58
2022-07-28T06:05:21.371Z,97384.07
2022-07-28T06:07:51.270Z,97386.97
2022-07-28T06:10:22.077Z,97390.30
2022-07-28T06:12:53.076Z,97394.83
2022-07-28T06:15:27.393Z,97389.09
2022-07-28T06:17:55.371Z,97389.30
2022-07-28T06:20:24.970Z,97394.11
2022-07-28T06:22:54.767Z,97399.89
2022-07-28T06:25:28.602Z,97390.43
2022-07-28T06:27:59.437Z,97390.08
2022-07-28T06:30:27.575Z,97397.34
2022-07-28T06:32:56.403Z,97395.48
2022-07-28T06:35:25.044Z,97398.16
2022-07-28T06:37:53.086Z,97395.30
2022-07-28T06:40:21.753Z,97402.98
2022-07-28T06:42:49.944Z,97398.41
2022-07-28T06:45:21.000Z,97402.89
2022-07-28T06:47:50.771Z,97403.06
2022-07-28T06:50:25.043Z,97404.14
2022-07-28T06:52:49.244Z,97407.72
2022-07-28T06:55:17.166Z,97407.13
2022-07-28T06:57:44.944Z,97409.31
2022-07-28T07:00:13.992Z,97407.53
2022-07-28T07:02:42.505Z,97405.19
2022-07-28T07:05:11.695Z,97408.73
2022-07-28T07:07:43.042Z,97407.95
2022-07-28T07:10:09.412Z,97409.93
2022-07-28T07:12:37.239Z,97408.52
2022-07-28T07:15:06.918Z,97401.53
2022-07-28T07:17:36.385Z,97405.36
2022-07-28T07:20:07.129Z,97405.89
2022-07-28T07:22:37.379Z,97403.02
2022-07-28T07:25:13.815Z,97405.41
2022-07-28T07:27:41.395Z,97410.22
2022-07-28T07:30:10.655Z,97405.71
2022-07-28T07:32:40.002Z,97402.42
2022-07-28T07:35:08.573Z,97407.66
2022-07-28T07:37:36.272Z,97406.80
2022-07-28T07:40:06.779Z,97403.15
2022-07-28T07:42:34.650Z,97398.20
2022-07-28T07:45:02.443Z,97407.67
2022-07-28T07:47:30.630Z,97412.34
2022-07-28T07:49:58.360Z,97402.04
2022-07-28T07:52:25.918Z,97410.72
2022-07-28T07:54:53.547Z,97400.66
2022-07-28T07:57:21.388Z,97400.98
2022-07-28T07:59:49.124Z,97395.03
2022-07-28T08:02:16.836Z,97395.80
2022-07-28T08:04:44.767Z,97394.57
2022-07-28T08:07:12.647Z,97394.31
2022-07-28T08:09:42.329Z,97398.02
2022-07-28T08:12:09.781Z,97401.98
2022-07-28T08:14:37.392Z,97397.25
2022-07-28T08:17:05.295Z,97396.53
2022-07-28T08:19:32.969Z,97391.45
2022-07-28T08:22:01.980Z,97393.65
2022-07-28T08:24:33.307Z,97391.14
2022-07-28T08:26:59.751Z,97391.56
2022-07-28T08:29:27.533Z,97391.77
2022-07-28T08:31:55.318Z,97393.82
2022-07-28T08:34:29.866Z,97394.12
2022-07-28T08:36:53.989Z,97393.66
2022-07-28T08:39:22.353Z,97387.95
2022-07-28T08:42:22.343Z,97394.70
2022-07-28T08:45:04.331Z,97392.97
2022-07-28T08:47:45.768Z,97399.50
2022-07-28T08:50:05.252Z,97396.64
2022-07-28T08:52:33.594Z,97396.53
2022-07-28T08:55:06.002Z,97402.80
2022-07-28T08:57:42.488Z,97399.04
2022-07-28T09:00:12.387Z,97408.30
2022-07-28T09:02:47.173Z,97397.88
2022-07-28T09:05:19.679Z,97401.02
2022-07-28T09:07:54.709Z,97393.86
2022-07-28T09:10:22.271Z,97394.11
2022-07-28T09:12:50.597Z,97389.36
2022-07-28T09:15:18.276Z,97388.80
2022-07-28T09:17:45.837Z,97395.39
2022-07-28T09:20:13.598Z,97394.05
2022-07-28T09:23:00.765Z,97396.24
2022-07-28T09:25:30.091Z,97394.16
2022-07-28T09:28:11.225Z,97392.52
2022-07-28T09:30:48.407Z,97390.67
2022-07-28T09:33:43.314Z,97391.48
2022-07-28T09:35:54.217Z,97386.08
2022-07-28T09:38:25.114Z,97385.95
2022-07-28T09:41:01.304Z,97386.77
2022-07-28T09:43:41.868Z,97386.00
2022-07-28T09:46:19.099Z,97392.23
2022-07-28T09:48:59.540Z,97396.18
2022-07-28T09:51:30.961Z,97392.28
2022-07-28T09:54:09.387Z,97390.40
2022-07-28T09:56:44.052Z,97394.11
2022-07-28T09:59:15.072Z,97389.24
2022-07-28T10:02:02.362Z,97393.44
2022-07-28T10:04:37.335Z,97393.30
2022-07-28T10:07:17.494Z,97396.91
2022-07-28T10:09:58.598Z,97386.45
2022-07-28T10:12:32.891Z,97387.83
2022-07-28T10:15:36.186Z,97389.98
2022-07-28T10:18:05.556Z,97387.83
2022-07-28T10:20:34.245Z,97387.47
2022-07-28T10:23:12.068Z,97384.06
2022-07-28T10:25:41.441Z,97385.66
2022-07-28T10:28:11.840Z,97376.83
2022-07-28T10:30:40.812Z,97370.34
2022-07-28T10:33:15.460Z,97367.98
2022-07-28T10:35:54.590Z,97371.07
2022-07-28T10:38:21.242Z,97367.81
2022-07-28T10:40:52.248Z,97381.52
2022-07-28T10:43:20.824Z,97371.53
2022-07-28T10:46:08.095Z,97372.75
2022-07-28T10:48:21.328Z,97375.23
2022-07-28T10:50:52.915Z,97363.20
2022-07-28T10:53:45.487Z,97368.19
2022-07-28T10:56:21.825Z,97364.89
2022-07-28T10:59:44.087Z,97360.61
2022-07-28T11:02:45.018Z,97362.83
2022-07-28T11:05:34.689Z,97364.10
2022-07-28T11:08:07.439Z,97361.94
2022-07-28T11:10:51.618Z,97358.05
2022-07-28T11:13:32.910Z,97363.97
2022-07-28T11:16:18.905Z,97357.11
2022-07-28T11:19:40.122Z,97357.73
2022-07-28T11:21:51.098Z,97352.11
2022-07-28T11:24:18.084Z,97352.55
2022-07-28T11:26:45.685Z,97344.78
2022-07-28T11:29:14.435Z,97346.50
2022-07-28T11:31:51.247Z,97347.14
2022-07-28T11:34:24.702Z,97350.09
2022-07-28T11:37:06.075Z,97347.42
2022-07-28T11:39:43.260Z,97348.22
2022-07-28T11:42:30.807Z,97336.66
2022-07-28T11:45:22.860Z,97317.77
2022-07-28T11:48:16.154Z,97329.24
2022-07-28T11:51:07.325Z,97325.37
2022-07-28T11:53:47.353Z,97322.14
2022-07-28T11:56:33.281Z,97320.11
2022-07-28T11:59:06.376Z,97317.42
2022-07-28T12:01:37.059Z,97322.87
2022-07-28T12:04:17.339Z,97318.13
2022-07-28T12:06:49.393Z,97318.37
2022-07-28T12:09:21.725Z,97316.39
2022-07-28T12:11:49.053Z,97313.86
2022-07-28T12:14:17.720Z,97314.19
2022-07-28T12:16:50.065Z,97309.97
2022-07-28T12:19:19.771Z,97312.28
2022-07-28T12:21:51.308Z,97311.30
2022-07-28T12:24:30.614Z,97304.61
2022-07-28T12:26:59.981Z,97306.12
2022-07-28T12:29:35.518Z,97299.53
2022-07-28T12:32:05.236Z,97296.64
2022-07-28T12:34:35.370Z,97296.36
2022-07-28T12:37:05.874Z,97286.55
2022-07-28T12:39:35.880Z,97285.09
2022-07-28T12:42:09.368Z,97283.91
2022-07-28T12:44:48.570Z,97287.86
2022-07-28T12:47:20.447Z,97285.20
2022-07-28T12:49:56.290Z,97283.06
2022-07-28T12:52:24.866Z,97277.55
2022-07-28T12:54:55.489Z,97280.28
2022-07-28T12:57:50.001Z,97280.48
2022-07-28T13:00:18.392Z,97272.59
2022-07-28T13:02:46.243Z,97282.13
2022-07-28T13:05:54.080Z,97277.05
2022-07-28T13:08:24.943Z,97277.06
2022-07-28T13:10:56.946Z,97275.64
2022-07-28T13:13:22.587Z,97279.23
2022-07-28T13:16:17.767Z,97289.56
2022-07-28T13:18:54.637Z,97286.94
2022-07-28T13:21:57.665Z,97277.97
2022-07-28T13:24:17.078Z,97287.47
2022-07-28T13:26:45.699Z,97280.66
2022-07-28T13:29:14.068Z,97282.20
2022-07-28T13:31:41.717Z,97277.54
2022-07-28T13:34:10.409Z,97289.51
2022-07-28T13:36:38.630Z,97292.44
2022-07-28T13:39:09.760Z,97301.14
2022-07-28T13:41:57.941Z,97297.09
2022-07-28T13:44:07.502Z,97300.04
2022-07-28T13:46:38.880Z,97307.17
2022-07-28T13:49:07.027Z,97304.02
2022-07-28T13:51:35.823Z,97306.50
2022-07-28T13:54:03.718Z,97308.03
2022-07-28T13:56:41.165Z,97314.20
2022-07-28T13:59:10.547Z,97311.22
2022-07-28T14:01:40.890Z,97313.80
2022-07-28T14:04:16.936Z,97315.91
2022-07-28T14:06:39.996Z,97319.58
2022-07-28T14:09:07.669Z,97320.59
2022-07-28T14:11:36.465Z,97324.58
2022-07-28T14:14:04.270Z,97330.86
2022-07-28T14:16:32.946Z,97333.81
2022-07-28T14:19:00.534Z,97337.41
2022-07-28T14:21:28.458Z,97341.46
2022-07-28T14:23:56.477Z,97340.08
2022-07-28T14:26:39.948Z,97347.39
2022-07-28T14:28:54.462Z,97356.77
2022-07-28T14:31:22.127Z,97361.37
2022-07-28T14:33:54.481Z,97358.82
2022-07-28T14:36:19.887Z,97346.38
2022-07-28T14:38:53.652Z,97350.64
2022-07-28T14:41:17.319Z,97346.88
2022-07-28T14:43:45.088Z,97340.59
2022-07-28T14:46:19.225Z,97359.92
2022-07-28T14:48:42.849Z,97377.91
2022-07-28T14:51:13.532Z,97370.97
2022-07-28T14:53:51.442Z,97361.94
2022-07-28T14:56:14.504Z,97370.70
2022-07-28T14:58:42.956Z,97369.69
2022-07-28T15:01:10.662Z,97366.12
2022-07-28T15:03:41.632Z,97373.65
2022-07-28T15:06:08.492Z,97380.88
2022-07-28T15:08:36.073Z,97378.42
2022-07-28T15:11:03.876Z,97380.22
2022-07-28T15:13:31.467Z,97387.25
2022-07-28T15:15:59.410Z,97390.11
2022-07-28T15:18:27.399Z,97386.11
2022-07-28T15:20:55.756Z,97382.05
2022-07-28T15:23:23.928Z,97382.27
2022-07-28T15:25:52.672Z,97397.09
2022-07-28T15:28:20.351Z,97401.52
2022-07-28T15:30:51.250Z,97421.03
2022-07-28T15:33:20.662Z,97440.47
2022-07-28T15:35:58.244Z,97445.49
2022-07-28T15:38:20.805Z,97462.35
2022-07-28T15:40:49.965Z,97459.02
2022-07-28T15:43:18.656Z,97473.09
2022-07-28T15:45:47.877Z,97471.70
2022-07-28T15:48:15.508Z,97491.25
2022-07-28T15:50:45.126Z,97495.97
2022-07-28T15:53:12.792Z,97505.66
2022-07-28T15:55:40.899Z,97502.39
2022-07-28T15:58:09.091Z,97494.50
2022-07-28T16:00:37.039Z,97495.01
2022-07-28T16:03:06.542Z,97482.28
2022-07-28T16:05:34.296Z,97479.77
2022-07-28T16:08:01.973Z,97473.75
2022-07-28T16:10:29.733Z,97476.16
2022-07-28T16:12:57.331Z,97470.92
2022-07-28T16:15:26.561Z,97478.05
2022-07-28T16:17:54.779Z,97474.33
2022-07-28T16:20:23.905Z,97488.01
2022-07-28T16:22:51.401Z,97493.57
2022-07-28T16:25:20.222Z,97501.87
2022-07-28T16:27:49.184Z,97501.87
2022-07-28T16:30:18.339Z,97495.52
2022-07-28T16:32:46.318Z,97491.73
2022-07-28T16:35:14.817Z,97490.53
2022-07-28T16:37:42.913Z,97491.55
2022-07-28T16:40:11.390Z,97496.76
2022-07-28T16:42:39.246Z,97510.22
2022-07-28T16:45:09.261Z,97510.68
2022-07-28T16:47:36.898Z,97510.53
2022-07-28T16:50:05.135Z,97517.68
2022-07-28T16:52:34.811Z,97509.66
2022-07-28T16:55:02.641Z,97499.41
2022-07-28T16:57:30.392Z,97501.42
2022-07-28T16:59:58.277Z,97497.12
2022-07-28T17:02:26.021Z,97499.34
2022-07-28T17:04:53.918Z,97511.02
2022-07-28T17:07:22.740Z,97517.41
2022-07-28T17:09:50.435Z,97532.41
2022-07-28T17:12:18.140Z,97539.96
2022-07-28T17:14:45.627Z,97534.30
2022-07-28T17:17:13.322Z,97539.04
2022-07-28T17:19:45.118Z,97545.75
2022-07-28T17:22:10.915Z,97547.56
2022-07-28T17:24:38.730Z,97553.27
2022-07-28T17:29:36.626Z,97575.64
2022-07-28T17:32:05.333Z,97574.92
2022-07-28T17:34:34.214Z,97575.74
2022-07-28T17:37:02.041Z,97573.77
2022-07-28T17:39:29.686Z,97577.19
2022-07-28T17:41:57.572Z,97584.47
2022-07-28T17:44:25.196Z,97587.83
2022-07-28T17:46:53.019Z,97586.45
2022-07-28T17:49:20.767Z,97585.89
2022-07-28T17:51:48.470Z,97582.55
2022-07-28T17:54:18.488Z,97578.60
2022-07-28T17:56:49.200Z,97570.14
2022-07-28T17:59:17.589Z,97563.06
2022-07-28T18:01:45.770Z,97559.31
2022-07-28T18:04:14.214Z,97548.31
2022-07-28T18:06:43.790Z,97563.83
2022-07-28T18:09:11.566Z,97576.67
2022-07-28T18:11:56.669Z,97587.48
2022-07-28T18:14:09.888Z,97596.94
2022-07-28T18:16:37.381Z,97604.61
2022-07-28T18:19:06.057Z,97608.14
2022-07-28T18:21:34.907Z,97605.56
2022-07-28T18:24:03.426Z,97608.88
2022-07-28T18:26:31.027Z,97616.16
2022-07-28T18:28:58.715Z,97613.77
2022-07-28T18:31:27.888Z,97617.09
2022-07-28T18:33:55.574Z,97625.94
2022-07-28T18:36:23.105Z,97635.40
2022-07-28T18:38:50.835Z,97642.31
2022-07-28T18:41:18.609Z,97645.08
2022-07-28T18:43:46.212Z,97650.05
2022-07-28T18:46:13.923Z,97646.33
2022-07-28T18:48:41.657Z,97647.91
2022-07-28T18:51:09.423Z,97649.89
2022-07-28T18:53:39.902Z,97655.00
2022-07-28T18:56:07.696Z,97649.48
2022-07-28T18:58:35.444Z,97656.00
2022-07-28T19:01:03.106Z,97663.27
2022-07-28T19:03:31.483Z,97669.80
2022-07-28T19:05:59.270Z,97677.11
2022-07-28T19:08:26.765Z,97674.35
2022-07-28T19:10:54.407Z,97674.36
2022-07-28T19:13:21.892Z,97667.27
2022-07-28T19:15:49.541Z,97671.22
2022-07-28T19:18:17.315Z,97672.79
2022-07-28T19:20:45.002Z,97672.78
2022-07-28T19:23:12.662Z,97673.95
2022-07-28T19:25:40.332Z,97669.21
2022-07-28T19:28:08.323Z,97657.02
2022-07-28T19:30:36.312Z,97649.53
2022-07-28T19:33:04.990Z,97641.84
2022-07-28T19:35:33.221Z,97643.59
2022-07-28T19:38:02.163Z,97642.62
2022-07-28T19:40:31.390Z,97646.95
2022-07-28T19:42:59.685Z,97658.77
2022-07-28T19:45:27.561Z,97671.78
2022-07-28T19:47:55.221Z,97678.69
2022-07-28T19:50:23.017Z,97678.30
2022-07-28T19:52:50.838Z,97671.41
2022-07-28T19:55:18.592Z,97663.70
2022-07-28T19:57:46.441Z,97654.63
2022-07-28T20:00:16.985Z,97652.66
2022-07-28T20:02:45.371Z,97657.76
2022-07-28T20:05:13.284Z,97660.32
2022-07-28T20:07:41.830Z,97656.96
2022-07-28T20:10:09.666Z,97659.30
2022-07-28T20:12:37.482Z,97654.56
2022-07-28T20:15:06.435Z,97652.98
2022-07-28T20:17:39.539Z,97649.02
2022-07-28T20:20:06.618Z,97647.04
2022-07-28T20:22:34.309Z,97644.65
2022-07-28T20:25:01.831Z,97646.44
2022-07-28T20:27:29.476Z,97648.02
2022-07-28T20:29:58.627Z,97645.07
2022-07-28T20:32:26.503Z,97645.48
2022-07-28T20:34:56.183Z,97646.87
2022-07-28T20:37:36.023Z,97632.67
2022-07-28T20:39:54.143Z,97632.11
2022-07-28T20:42:22.539Z,97632.30
2022-07-28T20:44:51.769Z,97626.00
2022-07-28T20:47:20.378Z,97621.27
2022-07-28T20:49:48.152Z,97621.69
2022-07-28T20:52:16.067Z,97630.34
2022-07-28T20:54:43.891Z,97628.59
2022-07-28T20:57:11.671Z,97627.39
2022-07-28T20:59:39.530Z,97623.45
2022-07-28T21:02:07.480Z,97622.84
2022-07-28T21:04:35.933Z,97621.46
2022-07-28T21:07:04.267Z,97620.48
2022-07-28T21:09:32.116Z,97617.55
2022-07-28T21:11:59.712Z,97613.05
2022-07-28T21:14:27.557Z,97610.31
2022-07-28T21:16:55.269Z,97605.39
2022-07-28T21:19:22.888Z,97612.48
2022-07-28T21:21:50.499Z,97604.62
2022-07-28T21:24:18.705Z,97608.14
2022-07-28T21:26:48.397Z,97613.69
2022-07-28T21:32:04.966Z,97617.83
2022-07-28T21:34:18.466Z,97618.83
2022-07-28T21:36:46.692Z,97618.02
2022-07-28T21:39:14.555Z,97621.78
2022-07-28T21:41:42.706Z,97617.64
2022-07-28T21:44:12.198Z,97620.78
2022-07-28T21:46:41.705Z,97627.48
2022-07-28T21:49:09.529Z,97630.83
2022-07-28T21:51:37.501Z,97629.45
2022-07-28T21:54:05.339Z,97625.50
2022-07-28T21:56:34.249Z,97634.56
2022-07-28T21:59:03.437Z,97633.78
2022-07-28T22:01:31.613Z,97636.13
2022-07-28T22:03:59.695Z,97627.08
2022-07-28T22:06:27.516Z,97628.27
2022-07-28T22:08:55.462Z,97624.31
2022-07-28T22:11:23.433Z,97625.31
2022-07-28T22:13:51.192Z,97628.86
2022-07-28T22:16:18.935Z,97629.86
2022-07-28T22:18:46.719Z,97627.48
2022-07-28T22:21:14.388Z,97631.83
2022-07-28T22:23:42.174Z,97632.61
2022-07-28T22:26:09.907Z,97636.55
2022-07-28T22:28:37.304Z,97644.42
2022-07-28T22:31:09.177Z,97641.66
2022-07-28T22:33:39.908Z,97644.83
2022-07-28T22:36:08.156Z,97643.23
2022-07-28T22:38:36.113Z,97647.36
2022-07-28T22:41:03.943Z,97643.23
2022-07-28T22:43:32.909Z,97645.61
2022-07-28T22:46:00.963Z,97644.42
2022-07-28T22:48:28.743Z,97644.02
2022-07-28T22:50:56.398Z,97652.10
2022-07-28T22:53:24.021Z,97655.64
2022-07-28T22:55:51.829Z,97648.37
2022-07-28T22:58:19.668Z,97657.80
2022-07-28T23:00:47.616Z,97663.92
2022-07-28T23:03:17.071Z,97660.37
2022-07-28T23:05:45.155Z,97667.63
2022-07-28T23:08:13.078Z,97673.95
2022-07-28T23:10:40.839Z,97673.94
2022-07-28T23:13:08.412Z,97671.56
2022-07-28T23:15:39.701Z,97674.70
2022-07-28T23:18:05.806Z,97676.28
2022-07-28T23:20:33.771Z,97672.14
2022-07-28T23:23:01.475Z,97673.74
2022-07-28T23:25:29.264Z,97669.03
2022-07-28T23:27:56.827Z,97670.00
2022-07-28T23:30:24.494Z,97673.34
2022-07-28T23:32:52.609Z,97671.56
2022-07-28T23:35:20.264Z,97677.47
2022-07-28T23:37:48.056Z,97675.91
2022-07-28T23:40:15.860Z,97670.78
2022-07-28T23:42:43.925Z,97674.14
2022-07-28T23:45:12.012Z,97659.77
2022-07-28T23:47:40.041Z,97658.21
2022-07-28T23:50:08.388Z,97658.40
2022-07-28T23:52:36.230Z,97657.42
2022-07-28T23:55:05.146Z,97654.08
2022-07-28T23:57:32.999Z,97657.98
